Time;durP1;ratioP1;P1;durP2;ratioP2;P2;SDS_P1;SDS_P2;PMS_P1;PMS_P2;Temp;Humidity;BMP_temperature;BMP_pressure;BME280_temperature;BME280_humidity;BME280_pressure;Samples;Min_cycle;Max_cycle;Signal;HPM_P1;HPM_P2
2022/05/11 00:01:34;;;;;;;2.97;1.50;;;21.20;56.20;;;;;;5029910;28;20970;-73
2022/05/11 00:04:01;;;;;;;7.80;1.60;;;21.20;56.40;;;;;;5029816;28;20604;-72
2022/05/11 00:06:28;;;;;;;3.50;1.57;;;21.10;56.40;;;;;;5031190;28;20626;-72
2022/05/11 00:08:55;;;;;;;3.00;1.17;;;21.10;56.40;;;;;;5031698;28;20571;-72
2022/05/11 00:11:22;;;;;;;3.07;1.53;;;21.10;56.60;;;;;;5031091;28;20569;-73
2022/05/11 00:13:48;;;;;;;2.83;1.90;;;21.10;56.70;;;;;;5030673;28;20970;-72
2022/05/11 00:16:13;;;;;;;3.50;1.60;;;21.10;56.80;;;;;;5031358;28;20569;-72
2022/05/11 00:18:40;;;;;;;3.37;1.77;;;21.00;56.80;;;;;;5030307;28;20572;-72
2022/05/11 00:21:06;;;;;;;4.37;1.40;;;21.00;57.00;;;;;;5030962;28;20597;-72
2022/05/11 00:23:32;;;;;;;2.70;1.33;;;21.00;56.90;;;;;;5012897;28;20624;-72
2022/05/11 00:25:58;;;;;;;2.63;1.37;;;20.90;56.80;;;;;;5031325;28;20583;-72
2022/05/11 00:28:24;;;;;;;2.57;1.33;;;20.90;56.90;;;;;;5029965;28;20173;-72
2022/05/11 00:30:49;;;;;;;4.23;1.30;;;20.90;56.90;;;;;;5033081;28;20304;-72
2022/05/11 00:33:17;;;;;;;3.47;1.70;;;20.90;57.10;;;;;;5034541;28;20243;-72
2022/05/11 00:35:45;;;;;;;3.40;1.40;;;20.90;57.20;;;;;;5035119;28;20241;-72
2022/05/11 00:38:11;;;;;;;2.47;1.50;;;20.80;57.30;;;;;;5035283;28;20564;-72
2022/05/11 00:40:43;;;;;;;3.83;1.50;;;20.80;57.30;;;;;;5034658;28;20576;-73
2022/05/11 00:43:10;;;;;;;2.20;1.20;;;20.80;57.50;;;;;;5032943;28;20643;-72
2022/05/11 00:45:40;;;;;;;3.90;1.43;;;20.80;57.40;;;;;;5034867;28;20561;-73
2022/05/11 00:50:55;;;;;;;2.83;1.30;;;20.80;57.60;;;;;;5034490;28;20557;-72
2022/05/11 00:53:22;;;;;;;2.27;1.27;;;20.70;57.50;;;;;;5033862;28;20596;-73
2022/05/11 00:55:55;;;;;;;2.50;1.30;;;20.70;57.70;;;;;;5034689;28;21034;-72
2022/05/11 00:58:26;;;;;;;4.40;1.53;;;20.70;57.80;;;;;;5034509;28;20568;-72
2022/05/11 01:00:53;;;;;;;2.37;1.23;;;20.60;57.80;;;;;;5034475;28;20659;-73
2022/05/11 01:03:27;;;;;;;4.60;1.63;;;20.60;57.90;;;;;;5033818;28;20656;-72
2022/05/11 01:05:53;;;;;;;2.93;1.43;;;20.60;58.10;;;;;;5033367;28;20580;-73
2022/05/11 01:08:21;;;;;;;2.80;1.27;;;20.60;58.10;;;;;;5034407;28;20572;-73
2022/05/11 01:10:48;;;;;;;2.80;1.67;;;20.60;58.10;;;;;;5033915;28;20575;-72
2022/05/11 01:13:16;;;;;;;2.23;1.47;;;20.60;58.20;;;;;;5033941;28;20700;-72
2022/05/11 01:15:49;;;;;;;3.47;1.37;;;20.60;58.50;;;;;;5016746;28;20604;-72
2022/05/11 01:18:17;;;;;;;4.10;1.30;;;20.60;58.40;;;;;;5034279;28;21119;-72
2022/05/11 01:20:44;;;;;;;4.13;1.90;;;20.60;58.50;;;;;;5033958;28;20663;-72
2022/05/11 01:23:32;;;;;;;3.23;1.33;;;20.60;58.50;;;;;;5032414;28;20628;-72
2022/05/11 01:25:58;;;;;;;2.40;1.20;;;20.60;58.70;;;;;;5034151;28;20560;-72
2022/05/11 01:28:24;;;;;;;4.47;1.40;;;20.60;58.70;;;;;;5032803;28;20954;-72
2022/05/11 01:31:04;;;;;;;2.50;1.33;;;20.60;58.80;;;;;;5032547;28;20603;-72
2022/05/11 01:33:31;;;;;;;2.30;1.33;;;20.60;58.90;;;;;;5032399;28;20280;-72
2022/05/11 01:36:13;;;;;;;4.50;1.53;;;20.60;58.90;;;;;;5034020;28;20564;-72
2022/05/11 01:39:06;;;;;;;1.90;1.30;;;20.60;59.10;;;;;;5033875;28;20575;-73
2022/05/11 01:41:38;;;;;;;2.27;1.20;;;20.60;59.20;;;;;;5031629;28;20687;-73
2022/05/11 01:44:11;;;;;;;5.10;1.53;;;20.70;59.20;;;;;;5033095;28;20698;-72
2022/05/11 01:46:37;;;;;;;3.13;1.30;;;20.70;59.20;;;;;;5033950;28;20672;-73
2022/05/11 01:49:04;;;;;;;2.10;1.20;;;20.70;59.20;;;;;;5033677;28;20573;-73
2022/05/11 01:51:30;;;;;;;3.37;1.53;;;20.70;59.20;;;;;;5033610;28;20690;-72
2022/05/11 01:53:56;;;;;;;3.13;1.43;;;20.70;59.40;;;;;;5032683;28;20706;-72
2022/05/11 01:56:23;;;;;;;4.07;1.70;;;20.70;59.50;;;;;;5032336;28;20579;-73
2022/05/11 01:58:50;;;;;;;2.87;1.43;;;20.70;59.50;;;;;;5033418;28;20188;-72
2022/05/11 02:01:19;;;;;;;1.83;1.50;;;20.60;59.60;;;;;;5032163;28;20568;-72
2022/05/11 02:03:46;;;;;;;2.97;1.30;;;20.60;59.70;;;;;;5032757;28;20628;-72
2022/05/11 02:08:56;;;;;;;6.70;1.87;;;20.60;60.40;;;;;;5033376;28;20560;-72
2022/05/11 02:11:22;;;;;;;4.43;1.70;;;20.50;60.50;;;;;;5033089;28;20560;-72
2022/05/11 02:13:48;;;;;;;7.93;1.63;;;20.50;60.40;;;;;;5032888;28;20198;-72
2022/05/11 02:16:14;;;;;;;4.60;1.70;;;20.50;60.60;;;;;;5033368;28;20669;-72
2022/05/11 02:18:41;;;;;;;2.67;1.40;;;20.50;60.90;;;;;;5033139;28;20584;-72
2022/05/11 02:21:07;;;;;;;4.03;1.80;;;20.40;61.00;;;;;;5033014;28;20226;-72
2022/05/11 02:23:34;;;;;;;2.63;1.40;;;20.40;61.30;;;;;;5031219;28;20623;-72
2022/05/11 02:26:00;;;;;;;4.93;1.50;;;20.40;61.50;;;;;;5032967;28;20561;-72
2022/05/11 02:28:26;;;;;;;3.43;1.83;;;20.40;61.70;;;;;;5032899;28;20557;-73
2022/05/11 02:30:54;;;;;;;3.20;1.87;;;20.30;61.80;;;;;;5032467;28;20572;-72
2022/05/11 02:33:21;;;;;;;2.40;1.40;;;20.30;62.30;;;;;;5032339;28;20996;-72
2022/05/11 02:35:49;;;;;;;3.00;1.30;;;20.30;62.50;;;;;;5032140;28;20564;-72
2022/05/11 02:38:23;;;;;;;2.40;1.73;;;20.30;62.70;;;;;;5031755;28;20571;-72
2022/05/11 02:40:51;;;;;;;4.93;2.30;;;20.30;63.40;;;;;;5032505;28;20578;-72
2022/05/11 02:43:17;;;;;;;3.50;2.03;;;20.30;63.30;;;;;;5031704;28;20632;-72
2022/05/11 02:45:44;;;;;;;2.53;1.80;;;20.20;63.60;;;;;;5031301;28;21202;-73
2022/05/11 02:48:13;;;;;;;2.93;1.90;;;20.20;63.80;;;;;;5031385;28;20572;-72
2022/05/11 02:50:43;;;;;;;2.27;1.77;;;20.20;64.40;;;;;;5030868;28;20567;-73
2022/05/11 02:53:11;;;;;;;3.43;1.70;;;20.10;64.80;;;;;;5031011;28;20716;-72
2022/05/11 02:55:42;;;;;;;6.80;1.90;;;20.20;65.00;;;;;;5032402;28;20572;-72
2022/05/11 02:58:08;;;;;;;3.37;1.87;;;20.10;65.20;;;;;;5030088;28;20626;-73
2022/05/11 03:00:36;;;;;;;3.30;1.60;;;20.10;65.30;;;;;;5032117;28;20910;-73
2022/05/11 03:03:03;;;;;;;4.87;1.97;;;20.10;65.80;;;;;;5031607;28;20623;-72
2022/05/11 03:05:29;;;;;;;3.60;1.77;;;20.10;66.10;;;;;;5032069;28;20573;-73
2022/05/11 03:07:55;;;;;;;4.53;2.17;;;20.00;66.50;;;;;;5032228;28;21084;-72
2022/05/11 03:10:22;;;;;;;2.50;1.63;;;20.00;66.60;;;;;;5014088;28;20691;-72
2022/05/11 03:12:47;;;;;;;2.80;1.87;;;20.00;67.10;;;;;;5031872;28;20620;-72
2022/05/11 03:15:14;;;;;;;5.03;2.07;;;19.90;67.70;;;;;;5031542;28;20596;-72
2022/05/11 03:17:39;;;;;;;4.90;1.90;;;19.90;68.00;;;;;;5032010;28;20561;-72
2022/05/11 03:20:07;;;;;;;5.70;2.20;;;19.90;68.20;;;;;;5031589;28;20564;-72
2022/05/11 03:22:33;;;;;;;2.97;2.07;;;19.80;68.90;;;;;;5031777;28;20343;-72
2022/05/11 03:24:59;;;;;;;3.60;2.17;;;19.80;69.20;;;;;;5030207;28;20569;-72
2022/05/11 03:27:25;;;;;;;3.80;2.13;;;19.80;69.60;;;;;;5031804;28;20564;-73
2022/05/11 03:29:51;;;;;;;4.23;2.77;;;19.80;69.90;;;;;;5031690;28;20920;-72
2022/05/11 03:35:04;;;;;;;4.60;2.70;;;19.60;70.70;;;;;;5030233;28;20710;-72
2022/05/11 03:37:29;;;;;;;6.20;2.00;;;19.60;72.20;;;;;;5030681;28;20572;-73
2022/05/11 03:39:55;;;;;;;7.57;2.00;;;19.60;72.00;;;;;;5030212;28;20813;-72
2022/05/11 03:42:28;;;;;;;5.83;2.20;;;19.50;72.00;;;;;;5030491;28;21345;-73
2022/05/11 03:44:55;;;;;;;4.03;2.90;;;19.50;72.50;;;;;;5031303;28;20177;-72
2022/05/11 03:47:21;;;;;;;5.50;2.87;;;19.40;73.30;;;;;;5031448;28;20545;-73
2022/05/11 03:49:47;;;;;;;3.13;2.60;;;19.40;73.50;;;;;;5031156;28;20600;-73
2022/05/11 03:52:16;;;;;;;3.07;2.03;;;19.40;73.50;;;;;;5031805;28;21216;-72
2022/05/11 03:54:41;;;;;;;5.20;3.00;;;19.40;74.30;;;;;;5030933;28;20205;-73
2022/05/11 03:57:07;;;;;;;3.20;2.00;;;19.30;74.30;;;;;;5031915;28;20576;-73
2022/05/11 03:59:33;;;;;;;4.90;2.63;;;19.30;74.50;;;;;;5031682;28;20170;-72
2022/05/11 04:01:58;;;;;;;2.83;2.20;;;19.30;74.80;;;;;;5030995;28;20216;-72
2022/05/11 04:04:24;;;;;;;4.73;1.93;;;19.30;75.10;;;;;;5033365;28;20543;-73
2022/05/11 04:06:50;;;;;;;4.03;2.60;;;19.30;75.30;;;;;;5038057;28;20169;-73
2022/05/11 04:09:16;;;;;;;8.70;2.37;;;19.30;75.90;;;;;;5037937;28;20548;-72
2022/05/11 04:11:42;;;;;;;5.47;2.63;;;19.20;76.10;;;;;;5036607;28;20560;-72
2022/05/11 04:14:09;;;;;;;3.63;2.60;;;19.20;76.60;;;;;;5036267;28;20190;-74
2022/05/11 04:16:34;;;;;;;4.70;2.07;;;19.20;77.00;;;;;;5037785;28;20671;-72
2022/05/11 04:19:01;;;;;;;3.87;2.60;;;19.20;77.30;;;;;;5037917;28;20259;-73
2022/05/11 04:21:27;;;;;;;3.77;2.70;;;19.30;77.80;;;;;;5037569;28;20222;-72
2022/05/11 04:23:53;;;;;;;4.10;2.23;;;19.30;78.20;;;;;;5037261;28;20635;-72
2022/05/11 04:26:18;;;;;;;3.00;2.57;;;19.30;78.50;;;;;;5036472;28;20174;-72
2022/05/11 04:28:46;;;;;;;5.37;2.20;;;19.30;80.20;;;;;;5037760;28;20173;-72
2022/05/11 04:31:13;;;;;;;4.67;2.90;;;19.30;80.00;;;;;;5019598;28;20638;-72
2022/05/11 04:33:39;;;;;;;4.27;2.43;;;19.30;80.40;;;;;;5019451;28;20989;-72
2022/05/11 04:36:05;;;;;;;4.67;3.10;;;19.40;80.70;;;;;;5037719;28;20659;-72
2022/05/11 04:38:31;;;;;;;8.03;3.13;;;19.40;80.90;;;;;;5037728;28;20630;-72
2022/05/11 04:40:57;;;;;;;4.47;2.73;;;19.40;81.30;;;;;;5037494;28;20600;-73
2022/05/11 04:43:23;;;;;;;3.70;2.40;;;19.40;82.30;;;;;;5037240;28;20733;-72
2022/05/11 04:45:49;;;;;;;5.00;2.53;;;19.40;81.70;;;;;;5036231;28;20568;-72
2022/05/11 04:48:17;;;;;;;4.90;3.00;;;19.50;82.10;;;;;;5037809;28;20556;-72
2022/05/11 04:50:45;;;;;;;4.40;2.93;;;19.50;82.60;;;;;;5037196;28;20604;-72
2022/05/11 04:53:12;;;;;;;5.00;2.47;;;19.50;82.90;;;;;;5037044;28;20608;-72
2022/05/11 04:55:38;;;;;;;5.63;3.10;;;19.50;83.20;;;;;;5038113;28;20564;-75
2022/05/11 04:58:04;;;;;;;6.73;4.00;;;19.50;83.40;;;;;;5037783;28;20659;-74
2022/05/11 05:00:31;;;;;;;7.27;3.87;;;19.50;83.60;;;;;;5037251;28;20591;-76
2022/05/11 05:02:57;;;;;;;5.70;3.30;;;19.50;84.00;;;;;;5037068;28;20651;-76
2022/05/11 05:05:23;;;;;;;6.50;3.67;;;19.50;84.30;;;;;;5037567;28;20595;-75
2022/05/11 05:07:48;;;;;;;4.77;3.20;;;19.50;84.60;;;;;;5037535;28;20204;-74
2022/05/11 05:10:15;;;;;;;6.57;3.27;;;19.50;85.10;;;;;;5037275;28;20162;-74
2022/05/11 05:12:43;;;;;;;5.30;4.10;;;19.50;85.50;;;;;;5034857;28;20292;-74
2022/05/11 05:15:11;;;;;;;4.00;3.40;;;19.50;86.00;;;;;;5034812;28;20599;-74
2022/05/11 05:17:37;;;;;;;4.73;3.43;;;19.60;86.60;;;;;;5033722;28;20618;-74
2022/05/11 05:20:05;;;;;;;4.60;3.20;;;19.60;86.80;;;;;;5033854;28;20575;-74
2022/05/11 05:22:30;;;;;;;5.20;3.80;;;19.60;87.30;;;;;;5033968;28;20620;-74
2022/05/11 05:24:56;;;;;;;5.27;3.73;;;19.70;87.80;;;;;;5033513;28;20699;-74
2022/05/11 05:27:22;;;;;;;5.57;2.83;;;19.70;88.10;;;;;;5034303;28;20649;-74
2022/05/11 05:32:38;;;;;;;6.07;3.63;;;19.90;88.90;;;;;;5033982;28;20263;-74
2022/05/11 05:35:05;;;;;;;5.20;3.80;;;19.90;89.20;;;;;;5033625;28;20572;-74
2022/05/11 05:37:31;;;;;;;9.03;3.83;;;20.00;89.30;;;;;;5032614;28;21120;-74
2022/05/11 05:39:57;;;;;;;4.47;3.23;;;20.20;89.70;;;;;;5033905;28;20583;-74
2022/05/11 05:42:25;;;;;;;5.30;4.27;;;20.30;90.10;;;;;;5033855;28;20383;-74
2022/05/11 05:44:51;;;;;;;5.60;3.33;;;20.60;90.40;;;;;;5033106;28;20169;-74
2022/05/11 05:47:18;;;;;;;6.33;3.87;;;20.90;90.70;;;;;;5033912;28;20569;-74
2022/05/11 05:49:44;;;;;;;6.13;3.30;;;21.30;91.20;;;;;;5033325;28;20596;-74
2022/05/11 05:52:16;;;;;;;3.63;2.90;;;21.90;91.60;;;;;;5033675;28;20972;-74
2022/05/11 05:54:42;;;;;;;4.23;3.23;;;22.70;91.90;;;;;;5032991;28;20615;-76
2022/05/11 05:57:08;;;;;;;4.70;3.63;;;23.80;92.10;;;;;;5033685;28;20575;-75
2022/05/11 05:59:33;;;;;;;4.60;2.90;;;24.90;91.70;;;;;;5031957;28;20584;-76
2022/05/11 06:01:59;;;;;;;2.60;2.23;;;26.00;90.90;;;;;;5031593;28;20271;-76
2022/05/11 06:04:25;;;;;;;6.27;3.13;;;27.10;90.00;;;;;;5032845;28;20197;-76
2022/05/11 06:06:51;;;;;;;4.30;2.80;;;28.10;87.30;;;;;;5033425;28;20627;-76
2022/05/11 06:09:17;;;;;;;2.43;2.17;;;29.10;84.70;;;;;;5030421;28;20174;-76
2022/05/11 06:11:43;;;;;;;2.63;2.30;;;30.00;81.40;;;;;;5032677;28;20557;-76
2022/05/11 06:14:09;;;;;;;3.30;2.50;;;30.80;78.20;;;;;;5032164;28;20198;-76
2022/05/11 06:16:35;;;;;;;3.23;2.03;;;31.60;74.70;;;;;;5032661;28;20583;-76
2022/05/11 06:19:02;;;;;;;2.00;1.70;;;32.30;72.30;;;;;;5031672;28;20581;-76
2022/05/11 06:21:28;;;;;;;4.57;2.40;;;33.00;69.30;;;;;;5032301;28;20564;-76
2022/05/11 06:23:53;;;;;;;3.40;1.93;;;33.70;66.50;;;;;;5032060;28;20638;-76
2022/05/11 06:26:19;;;;;;;3.20;2.40;;;34.20;63.60;;;;;;5032458;28;20262;-76
2022/05/11 06:28:46;;;;;;;3.77;1.90;;;34.80;61.10;;;;;;5030118;28;20510;-76
2022/05/11 06:31:13;;;;;;;5.23;2.67;;;35.30;59.20;;;;;;5031155;28;20613;-76
2022/05/11 06:33:39;;;;;;;5.07;2.17;;;35.80;57.80;;;;;;5030754;28;21280;-76
2022/05/11 06:36:07;;;;;;;2.60;2.00;;;36.30;56.40;;;;;;5032453;28;20571;-76
2022/05/11 06:38:33;;;;;;;3.73;2.20;;;36.70;54.90;;;;;;5030925;28;20734;-76
2022/05/11 06:41:07;;;;;;;3.00;1.97;;;37.20;53.80;;;;;;5028703;28;20997;-75
2022/05/11 06:43:33;;;;;;;7.20;2.23;;;37.60;52.10;;;;;;5026104;28;20690;-75
2022/05/11 06:45:59;;;;;;;5.97;1.77;;;38.10;51.60;;;;;;5021851;28;20642;-75
2022/05/11 06:48:24;;;;;;;2.93;1.40;;;38.50;50.60;;;;;;5031654;28;20185;-74
2022/05/11 06:50:50;;;;;;;1.90;1.60;;;38.90;49.50;;;;;;5031256;28;20172;-74
2022/05/11 06:53:16;;;;;;;3.80;1.60;;;39.20;48.30;;;;;;5030560;28;20383;-74
2022/05/11 07:01:12;;;;;;;2.67;1.90;;;40.10;45.60;;;;;;5028730;28;20585;-75
2022/05/11 07:03:38;;;;;;;2.83;1.50;;;40.50;44.90;;;;;;5030893;28;20652;-74
2022/05/11 07:06:05;;;;;;;4.00;1.30;;;40.90;44.20;;;;;;5031926;28;20169;-74
2022/05/11 07:08:40;;;;;;;4.17;1.50;;;41.10;43.20;;;;;;5031434;28;20541;-74
2022/05/11 07:13:53;;;;;;;2.20;1.47;;;41.70;41.50;;;;;;5031068;28;20627;-74
2022/05/11 07:16:19;;;;;;;2.23;1.43;;;42.00;40.90;;;;;;5031487;28;20626;-74
2022/05/11 07:18:45;;;;;;;2.00;1.10;;;42.10;40.10;;;;;;5030280;28;20600;-74
2022/05/11 07:21:11;;;;;;;1.60;1.03;;;42.30;39.70;;;;;;5030951;28;20588;-74
2022/05/11 07:23:37;;;;;;;3.07;1.60;;;42.50;39.10;;;;;;5030773;28;20185;-75
2022/05/11 07:26:03;;;;;;;5.23;1.77;;;42.60;38.60;;;;;;5030431;28;20223;-75
2022/05/11 07:28:28;;;;;;;3.07;1.57;;;42.70;38.00;;;;;;5030935;28;20172;-74
2022/05/11 07:30:54;;;;;;;1.93;1.30;;;42.90;37.80;;;;;;5029663;28;20188;-75
2022/05/11 07:33:21;;;;;;;2.90;1.47;;;42.90;37.20;;;;;;5028927;28;20651;-75
2022/05/11 07:35:46;;;;;;;2.67;1.30;;;43.00;36.90;;;;;;5031193;28;20170;-75
2022/05/11 07:38:15;;;;;;;2.83;1.20;;;43.20;36.40;;;;;;5031187;28;21115;-75
2022/05/11 07:40:42;;;;;;;3.30;1.20;;;43.20;35.80;;;;;;5030290;28;20239;-75
2022/05/11 07:43:09;;;;;;;2.10;1.20;;;43.20;35.30;;;;;;5029935;28;20631;-74
2022/05/11 07:45:36;;;;;;;1.87;1.10;;;43.20;35.00;;;;;;5029306;28;21183;-74
2022/05/11 07:48:03;;;;;;;2.10;1.20;;;43.20;34.60;;;;;;5029163;28;20580;-74
2022/05/11 07:50:30;;;;;;;7.70;1.30;;;43.20;34.50;;;;;;5030696;28;21051;-74
2022/05/11 07:52:57;;;;;;;2.93;1.20;;;43.30;34.50;;;;;;5030301;28;20627;-75
2022/05/11 07:55:25;;;;;;;2.37;1.30;;;43.30;34.10;;;;;;5029643;28;20646;-74
2022/05/11 08:00:35;;;;;;;2.73;1.33;;;43.20;33.50;;;;;;5030719;28;20592;-75
2022/05/11 08:03:01;;;;;;;4.40;1.40;;;43.10;33.30;;;;;;5029115;28;20620;-75
2022/05/11 08:05:27;;;;;;;2.90;1.43;;;43.00;33.00;;;;;;5029885;28;20673;-74
2022/05/11 08:07:55;;;;;;;2.03;1.10;;;42.90;32.90;;;;;;5031435;28;20184;-74
2022/05/11 08:10:31;;;;;;;3.53;1.03;;;42.90;33.30;;;;;;5029555;28;20170;-75
2022/05/11 08:12:57;;;;;;;3.87;1.27;;;42.90;32.90;;;;;;5030880;28;20625;-74
2022/05/11 08:15:25;;;;;;;4.57;1.30;;;42.90;32.90;;;;;;5029219;28;20650;-75
2022/05/11 08:17:51;;;;;;;4.40;0.83;;;42.90;32.60;;;;;;5030814;28;20584;-74
2022/05/11 08:20:25;;;;;;;9.30;1.57;;;42.90;32.60;;;;;;5030651;28;20584;-75
2022/05/11 08:22:53;;;;;;;2.40;1.23;;;43.00;32.20;;;;;;5023268;28;20620;-74
2022/05/11 08:25:20;;;;;;;2.10;1.10;;;43.00;32.40;;;;;;5029064;28;20618;-74
2022/05/11 08:27:47;;;;;;;2.87;1.60;;;43.00;32.10;;;;;;5030809;28;20564;-74
2022/05/11 08:35:45;;;;;;;1.90;1.43;;;43.20;32.10;;;;;;5030749;28;20905;-74
2022/05/11 08:38:11;;;;;;;2.70;1.10;;;43.30;32.00;;;;;;5030532;28;20916;-75
2022/05/11 08:40:37;;;;;;;3.20;1.90;;;43.40;32.00;;;;;;5012596;28;20587;-75
2022/05/11 08:43:05;;;;;;;2.67;1.40;;;43.40;31.70;;;;;;5027200;28;21046;-75
2022/05/11 08:46:22;;;;;;;5.00;2.50;;;43.40;32.20;;;;;;5030596;28;20635;-75
2022/05/11 08:48:59;;;;;;;5.13;1.73;;;43.50;31.90;;;;;;4995523;28;20596;-74
2022/05/11 08:51:48;;;;;;;4.50;2.00;;;43.50;31.70;;;;;;5031694;28;20588;-75
2022/05/11 08:54:30;;;;;;;3.40;1.73;;;43.70;31.90;;;;;;5033626;28;20631;-75
2022/05/11 08:56:56;;;;;;;4.07;1.77;;;43.80;31.90;;;;;;5033274;28;20571;-75
2022/05/11 08:59:26;;;;;;;5.17;1.50;;;43.80;31.40;;;;;;5034111;28;20568;-76
2022/05/11 09:02:20;;;;;;;4.30;1.60;;;43.80;31.00;;;;;;5034010;28;21130;-75
2022/05/11 09:04:53;;;;;;;4.23;1.83;;;43.90;31.10;;;;;;5032301;28;20626;-75
2022/05/11 09:07:20;;;;;;;3.40;1.80;;;43.80;31.50;;;;;;5033929;28;20613;-75
2022/05/11 09:09:46;;;;;;;2.20;1.37;;;43.80;31.10;;;;;;5032416;28;20705;-75
2022/05/11 09:12:13;;;;;;;3.43;1.63;;;43.90;31.00;;;;;;5033911;28;20746;-75
2022/05/11 09:14:45;;;;;;;4.13;1.57;;;43.90;30.90;;;;;;5033234;28;20922;-75
2022/05/11 09:17:29;;;;;;;3.50;1.60;;;44.00;30.70;;;;;;5030072;28;21095;-74
2022/05/11 09:20:05;;;;;;;2.97;1.90;;;44.10;30.90;;;;;;5026436;28;20572;-75
2022/05/11 09:22:34;;;;;;;3.07;1.90;;;44.10;30.30;;;;;;5032706;28;21236;-77
2022/05/11 09:25:10;;;;;;;3.10;1.70;;;44.10;30.50;;;;;;5033933;28;20650;-76
2022/05/11 09:27:37;;;;;;;3.13;1.70;;;44.20;30.30;;;;;;5033570;28;20717;-75
2022/05/11 09:30:22;;;;;;;2.30;2.00;;;44.20;29.90;;;;;;5034096;28;20568;-74
2022/05/11 09:32:48;;;;;;;3.43;1.63;;;44.20;30.50;;;;;;5034073;28;20638;-74
2022/05/11 09:35:33;;;;;;;3.05;1.90;;;44.20;30.10;;;;;;5039737;28;21083;-74
2022/05/11 09:38:19;;;;;;;5.07;1.77;;;44.00;30.00;;;;;;5032510;28;20184;-74
2022/05/11 09:41:09;;;;;;;3.00;1.73;;;44.10;30.00;;;;;;5013010;28;21428;-74
2022/05/11 09:43:42;;;;;;;3.83;1.93;;;44.10;30.00;;;;;;5013035;28;20605;-74
2022/05/11 09:46:15;;;;;;;3.10;1.60;;;44.10;30.00;;;;;;4994868;28;20963;-74
2022/05/11 09:49:06;;;;;;;3.27;1.63;;;44.10;30.00;;;;;;5028242;28;20619;-75
2022/05/11 09:51:42;;;;;;;3.50;1.57;;;44.10;30.20;;;;;;5032334;28;20566;-76
2022/05/11 09:54:23;;;;;;;3.90;1.30;;;44.20;30.10;;;;;;5030857;28;20643;-74
2022/05/11 09:56:53;;;;;;;1.60;1.30;;;44.20;29.80;;;;;;5032905;28;20630;-74
2022/05/11 09:59:36;;;;;;;2.97;1.20;;;44.20;29.80;;;;;;5031132;28;20595;-74
2022/05/11 10:02:01;;;;;;;4.90;1.60;;;44.20;29.50;;;;;;5032044;28;20604;-74
2022/05/11 10:04:33;;;;;;;2.60;1.97;;;44.10;29.60;;;;;;5032111;28;21225;-74
2022/05/11 10:07:01;;;;;;;2.60;1.50;;;44.00;29.50;;;;;;5031698;28;20202;-75
2022/05/11 10:09:34;;;;;;;3.83;1.50;;;44.00;29.60;;;;;;5032382;28;20567;-75
2022/05/11 10:12:01;;;;;;;2.53;1.63;;;43.90;29.50;;;;;;5032559;28;20706;-74
2022/05/11 10:22:57;;;;;;;3.20;1.70;;;43.40;29.50;;;;;;5030251;28;20616;-74
2022/05/11 10:25:41;;;;;;;1.60;1.30;;;43.30;29.50;;;;;;5015004;28;20590;-74
2022/05/11 10:28:10;;;;;;;4.00;1.70;;;43.30;29.30;;;;;;5012588;28;20631;-74
2022/05/11 10:30:50;;;;;;;4.40;1.77;;;43.00;29.60;;;;;;5012473;28;20652;-75
2022/05/11 10:33:21;;;;;;;2.07;1.67;;;42.90;29.60;;;;;;5026841;28;20667;-75
2022/05/11 10:36:00;;;;;;;2.70;2.00;;;42.80;29.70;;;;;;5021509;28;20639;-75
2022/05/11 10:38:50;;;;;;;4.40;1.93;;;42.70;29.60;;;;;;5032042;28;20568;-74
2022/05/11 10:41:34;;;;;;;4.40;1.60;;;42.70;29.60;;;;;;4992874;28;20581;-74
2022/05/11 10:44:15;;;;;;;2.80;2.23;;;42.50;29.80;;;;;;5030313;28;20674;-74
2022/05/11 10:47:15;;;;;;;3.20;1.80;;;42.40;30.00;;;;;;5032136;28;20900;-74
2022/05/11 10:50:06;;;;;;;2.70;1.90;;;42.10;29.80;;;;;;5022858;28;20630;-74
2022/05/11 10:52:52;;;;;;;3.20;2.90;;;41.90;29.90;;;;;;5031664;28;20694;-73
2022/05/11 10:55:28;;;;;;;6.00;3.13;;;41.60;29.90;;;;;;5031948;28;20552;-77
2022/05/11 10:58:12;;;;;;;4.37;2.80;;;41.40;30.30;;;;;;5030295;28;20576;-77
2022/05/11 11:00:47;;;;;;;6.90;2.03;;;41.10;30.80;;;;;;5028918;28;20659;-78
2022/05/11 11:03:28;;;;;;;2.33;1.83;;;41.00;30.40;;;;;;5043949;28;20638;-78
2022/05/11 11:09:15;;;;;;;4.67;1.63;;;40.60;30.20;;;;;;5005311;28;20565;-78
2022/05/11 11:12:23;;;;;;;7.87;2.53;;;40.40;30.50;;;;;;5031748;28;20568;-78
2022/05/11 11:14:51;;;;;;;3.57;1.70;;;40.10;30.60;;;;;;4989978;28;20622;-78
2022/05/11 11:17:22;;;;;;;3.13;1.80;;;40.00;30.90;;;;;;5028758;28;20587;-78
2022/05/11 11:19:51;;;;;;;5.83;1.97;;;39.90;30.80;;;;;;5025916;28;21140;-77
2022/05/11 11:22:17;;;;;;;2.10;1.30;;;39.70;31.00;;;;;;5031706;28;21197;-78
2022/05/11 11:25:23;;;;;;;4.27;2.20;;;39.60;31.00;;;;;;5035495;28;20616;-77
2022/05/11 11:28:10;;;;;;;5.10;2.33;;;39.50;31.40;;;;;;5030725;28;21213;-77
2022/05/11 11:30:38;;;;;;;3.10;1.50;;;39.50;31.20;;;;;;5031359;28;21018;-78
2022/05/11 11:33:16;;;;;;;7.20;2.40;;;39.40;31.40;;;;;;5029201;28;20624;-78
2022/05/11 11:36:03;;;;;;;2.80;2.30;;;39.30;31.90;;;;;;5030908;28;20745;-77
2022/05/11 11:38:30;;;;;;;2.73;1.37;;;39.20;32.00;;;;;;5030704;28;20630;-78
2022/05/11 11:41:09;;;;;;;2.50;1.50;;;39.20;31.80;;;;;;5029679;28;20972;-78
2022/05/11 11:43:50;;;;;;;3.30;1.47;;;39.10;32.00;;;;;;5028023;28;20654;-78
2022/05/11 11:46:31;;;;;;;3.60;1.60;;;39.10;32.20;;;;;;5028913;28;20804;-78
2022/05/11 11:49:32;;;;;;;2.77;1.70;;;39.10;32.70;;;;;;5029820;28;21195;-79
2022/05/11 11:52:05;;;;;;;2.80;1.43;;;39.10;32.10;;;;;;5027615;28;20580;-78
2022/05/11 11:54:36;;;;;;;5.83;1.73;;;39.00;31.90;;;;;;5017165;28;20635;-78
2022/05/11 11:57:06;;;;;;;2.80;1.50;;;38.90;32.00;;;;;;5030562;28;20580;-78
2022/05/11 11:59:54;;;;;;;4.57;2.00;;;38.70;32.10;;;;;;5028500;28;20704;-78
2022/05/11 12:02:26;;;;;;;3.23;1.70;;;38.50;32.20;;;;;;5029822;28;20646;-78
2022/05/11 12:05:01;;;;;;;8.60;2.30;;;38.30;32.70;;;;;;5023107;28;20643;-78
2022/05/11 12:16:23;;;;;;;4.23;1.80;;;37.40;32.90;;;;;;5029776;28;20573;-77
2022/05/11 12:18:49;;;;;;;4.33;1.37;;;37.30;33.40;;;;;;5029127;28;20584;-77
2022/05/11 12:21:32;;;;;;;4.50;1.90;;;37.20;33.50;;;;;;5030470;28;20583;-77
2022/05/11 12:24:02;;;;;;;5.37;1.93;;;37.00;33.60;;;;;;5041355;28;20215;-77
2022/05/11 12:26:33;;;;;;;2.47;1.60;;;36.90;33.70;;;;;;5036603;28;20580;-77
2022/05/11 12:32:37;;;;;;;6.63;1.67;;;36.60;34.20;;;;;;5032813;28;20686;-73
2022/05/11 12:35:29;;;;;;;2.80;1.23;;;36.40;33.80;;;;;;5032625;28;20590;-73
2022/05/11 12:38:03;;;;;;;2.97;1.40;;;36.00;33.70;;;;;;5025000;28;21209;-72
2022/05/11 12:40:32;;;;;;;3.37;1.57;;;35.80;34.00;;;;;;5033977;28;21035;-72
2022/05/11 12:43:08;;;;;;;2.00;1.40;;;35.50;34.00;;;;;;5033561;28;20598;-73
2022/05/11 12:45:44;;;;;;;4.40;2.00;;;35.20;34.00;;;;;;5033004;28;20618;-73
2022/05/11 12:48:16;;;;;;;3.93;1.93;;;34.80;34.50;;;;;;5022848;28;20591;-72
2022/05/11 12:51:01;;;;;;;2.67;1.50;;;34.50;34.90;;;;;;5033355;28;21167;-73
2022/05/11 12:53:30;;;;;;;3.57;2.27;;;34.20;35.30;;;;;;5032534;28;21028;-72
2022/05/11 12:56:27;;;;;;;6.23;1.90;;;33.90;35.00;;;;;;5035788;28;20581;-73
2022/05/11 12:59:01;;;;;;;3.00;1.70;;;33.60;35.40;;;;;;5041147;28;21001;-73
2022/05/11 13:01:30;;;;;;;4.20;1.67;;;33.40;35.60;;;;;;5016676;28;20583;-73
2022/05/11 13:04:01;;;;;;;4.47;1.80;;;33.30;35.90;;;;;;5032886;28;20646;-73
2022/05/11 13:06:38;;;;;;;2.80;1.77;;;33.10;35.90;;;;;;5031020;28;20592;-73
2022/05/11 13:09:18;;;;;;;1.90;1.43;;;32.90;36.30;;;;;;5042681;28;20578;-73
2022/05/11 13:11:45;;;;;;;3.60;1.50;;;32.70;36.50;;;;;;5034682;28;20582;-73
2022/05/11 13:14:20;;;;;;;4.13;1.80;;;32.60;36.50;;;;;;5041988;28;20646;-73
2022/05/11 13:16:58;;;;;;;2.47;1.77;;;32.50;37.20;;;;;;5048021;28;20581;-73
2022/05/11 13:19:30;;;;;;;4.80;1.90;;;32.40;37.60;;;;;;5045485;28;20576;-73
2022/05/11 13:22:00;;;;;;;5.10;1.83;;;32.40;37.30;;;;;;5048031;28;20608;-73
2022/05/11 13:24:49;;;;;;;2.83;1.40;;;32.30;37.30;;;;;;5049187;28;20617;-73
2022/05/11 13:27:38;;;;;;;2.50;1.63;;;32.30;37.60;;;;;;5037121;28;20910;-73
2022/05/11 13:30:10;;;;;;;2.93;1.40;;;32.30;37.90;;;;;;5025422;28;20592;-73
2022/05/11 13:32:46;;;;;;;6.17;1.67;;;32.30;37.60;;;;;;5047921;28;20622;-73
2022/05/11 13:35:26;;;;;;;2.97;1.47;;;32.30;37.60;;;;;;5038186;28;20695;-73
2022/05/11 13:38:10;;;;;;;2.07;1.33;;;32.30;37.50;;;;;;5040910;28;20647;-73
2022/05/11 13:40:40;;;;;;;4.47;1.40;;;32.30;37.70;;;;;;5033260;28;20607;-73
2022/05/11 13:43:36;;;;;;;2.77;1.17;;;32.40;37.00;;;;;;5035282;28;20599;-73
2022/05/11 13:46:05;;;;;;;4.93;1.73;;;32.40;36.70;;;;;;5007043;28;20596;-73
2022/05/11 13:48:49;;;;;;;3.53;1.93;;;32.40;36.70;;;;;;5037925;28;20914;-73
2022/05/11 13:51:26;;;;;;;6.33;2.20;;;32.40;36.60;;;;;;5036806;28;20608;-74
2022/05/11 13:54:22;;;;;;;1.70;1.20;;;32.40;36.60;;;;;;5040179;28;21286;-73
2022/05/11 13:57:02;;;;;;;3.67;1.40;;;32.40;36.40;;;;;;5030946;28;20564;-73
2022/05/11 13:59:29;;;;;;;3.90;1.33;;;32.60;36.40;;;;;;5047356;28;20594;-74